createdAt,value
2016-08-22T00:00:49.576Z,87.15
2016-08-22T00:01:49.708Z,87.15
2016-08-22T00:02:49.564Z,87.15
2016-08-22T00:03:49.570Z,87.54
2016-08-22T00:04:49.567Z,87.44
2016-08-22T00:05:49.557Z,87.35
2016-08-22T00:06:49.541Z,88.01
2016-08-22T00:07:49.536Z,87.25
2016-08-22T00:08:49.583Z,87.54
2016-08-22T00:09:49.960Z,87.35
2016-08-22T00:10:49.613Z,87.44
2016-08-22T00:11:49.523Z,87.2
2016-08-22T00:12:49.513Z,87.35
2016-08-22T00:13:49.525Z,87.06
2016-08-22T00:14:49.515Z,87.63
2016-08-22T00:15:49.497Z,87.25
2016-08-22T00:16:49.494Z,87.1
2016-08-22T00:17:50.414Z,86.58
2016-08-22T00:18:49.603Z,86.24
2016-08-22T00:19:49.742Z,87.1
2016-08-22T00:20:49.482Z,87.2
2016-08-22T00:21:49.482Z,87.01
2016-08-22T00:22:49.453Z,86.53
2016-08-22T00:23:49.460Z,86.58
2016-08-22T00:24:49.454Z,86.24
2016-08-22T00:25:49.460Z,86.63
2016-08-22T00:26:49.437Z,87.1
2016-08-22T00:27:49.434Z,87.1
2016-08-22T00:28:49.682Z,87.44
2016-08-22T00:29:50.228Z,87.73
2016-08-22T00:30:49.476Z,87.29
2016-08-22T00:31:49.465Z,86.77
2016-08-22T00:32:49.393Z,87.06
2016-08-22T00:33:49.577Z,87.1
2016-08-22T00:34:49.397Z,87.44
2016-08-22T00:35:49.386Z,87.48
2016-08-22T00:36:49.384Z,86.96
2016-08-22T00:37:49.454Z,87.06
2016-08-22T00:38:49.377Z,87.25
2016-08-22T00:39:49.373Z,86.96
2016-08-22T00:40:49.384Z,87.48
2016-08-22T00:41:49.461Z,87.96
2016-08-22T00:42:49.352Z,87.77
2016-08-22T00:43:49.346Z,87.68
2016-08-22T00:44:49.346Z,87.82
2016-08-22T00:45:49.426Z,87.87
2016-08-22T00:46:49.411Z,87.39
2016-08-22T00:47:49.630Z,87.48
2016-08-22T00:48:50.220Z,87.01
2016-08-22T00:49:49.425Z,87.25
2016-08-22T00:50:49.359Z,86.87
2016-08-22T00:51:49.366Z,87.48
2016-08-22T00:52:49.299Z,87.44
2016-08-22T00:53:49.288Z,87.87
2016-08-22T00:54:49.282Z,87.77
2016-08-22T00:55:50.094Z,87.29
2016-08-22T00:56:49.281Z,87.87
2016-08-22T00:57:49.284Z,87.87
2016-08-22T00:58:49.273Z,87.96
2016-08-22T00:59:49.270Z,87.48
2016-08-22T01:00:49.271Z,87.39
2016-08-22T01:01:49.264Z,87.01
2016-08-22T01:02:49.258Z,87.68
2016-08-22T01:03:49.238Z,87.48
2016-08-22T01:04:49.234Z,87.82
2016-08-22T01:05:49.248Z,87.68
2016-08-22T01:06:49.935Z,87.73
2016-08-22T01:07:49.227Z,87.87
2016-08-22T01:08:49.312Z,87.68
2016-08-22T01:09:49.199Z,88.06
2016-08-22T01:10:49.215Z,87.96
2016-08-22T01:11:49.199Z,87.77
2016-08-22T01:12:49.177Z,87.96
2016-08-22T01:13:49.186Z,87.82
2016-08-22T01:14:49.292Z,87.96
2016-08-22T01:15:49.182Z,88.01
2016-08-22T01:16:49.195Z,87.82
2016-08-22T01:17:49.153Z,87.68
2016-08-22T01:18:49.182Z,87.96
2016-08-22T01:19:49.169Z,87.87
2016-08-22T01:20:49.157Z,88.06
2016-08-22T01:21:50.162Z,87.96
2016-08-22T01:22:49.212Z,87.92
2016-08-22T01:23:49.136Z,88.44
2016-08-22T01:24:49.139Z,88.3
2016-08-22T01:25:49.134Z,88.44
2016-08-22T01:26:49.852Z,87.96
2016-08-22T01:27:49.140Z,88.06
2016-08-22T01:28:49.120Z,87.96
2016-08-22T01:29:49.106Z,88.25
2016-08-22T01:30:49.099Z,88.15
2016-08-22T01:31:49.174Z,88.25
2016-08-22T01:32:49.085Z,88.54
2016-08-22T01:33:49.083Z,88.34
2016-08-22T01:34:49.071Z,88.15
2016-08-22T01:35:49.070Z,87.96
2016-08-22T01:36:49.054Z,87.96
2016-08-22T01:37:49.057Z,87.68
2016-08-22T01:38:49.938Z,87.58
2016-08-22T01:39:49.053Z,87.96
2016-08-22T01:40:49.056Z,87.96
2016-08-22T01:41:49.057Z,87.96
2016-08-22T01:42:49.047Z,87.77
2016-08-22T01:43:49.033Z,87.68
2016-08-22T01:44:49.017Z,87.58
2016-08-22T01:45:49.007Z,88.15
2016-08-22T01:46:49.003Z,88.15
2016-08-22T01:47:48.989Z,88.54
2016-08-22T01:48:48.989Z,88.54
2016-08-22T01:49:48.992Z,88.25
2016-08-22T01:50:48.978Z,88.54
2016-08-22T01:51:48.978Z,88.06
2016-08-22T01:52:49.014Z,88.34
2016-08-22T01:53:49.025Z,87.87
2016-08-22T01:54:48.974Z,88.34
2016-08-22T01:55:48.954Z,88.63
2016-08-22T01:56:48.959Z,88.06
2016-08-22T01:57:48.942Z,88.44
2016-08-22T01:58:48.931Z,88.25
2016-08-22T01:59:48.927Z,88.44
2016-08-22T02:00:48.918Z,88.54
2016-08-22T02:01:48.916Z,88.25
2016-08-22T02:02:48.942Z,88.63
2016-08-22T02:03:48.932Z,88.3
2016-08-22T02:04:48.962Z,88.2
2016-08-22T02:05:48.903Z,88.49
2016-08-22T02:06:48.902Z,88.49
2016-08-22T02:07:48.962Z,88.11
2016-08-22T02:08:48.950Z,88.01
2016-08-22T02:09:48.907Z,88.2
2016-08-22T02:10:48.898Z,88.59
2016-08-22T02:11:48.917Z,88.49
2016-08-22T02:12:48.897Z,88.54
2016-08-22T02:13:48.924Z,88.3
2016-08-22T02:14:48.885Z,88.54
2016-08-22T02:15:48.876Z,88.97
2016-08-22T02:16:48.882Z,88.82
2016-08-22T02:17:48.835Z,88.59
2016-08-22T02:18:48.839Z,88.87
2016-08-22T02:19:48.821Z,88.3
2016-08-22T02:20:48.869Z,89.25
2016-08-22T02:21:48.884Z,88.63
2016-08-22T02:22:48.957Z,88.78
2016-08-22T02:23:48.827Z,88.78
2016-08-22T02:24:48.823Z,88.59
2016-08-22T02:25:48.794Z,89.06
2016-08-22T02:26:48.782Z,89.35
2016-08-22T02:27:48.781Z,89.54
2016-08-22T02:28:48.781Z,89.25
2016-08-22T02:29:48.797Z,89.45
2016-08-22T02:30:49.482Z,89.06
2016-08-22T02:31:48.792Z,88.59
2016-08-22T02:32:48.772Z,88.97
2016-08-22T02:33:48.761Z,88.97
2016-08-22T02:34:48.750Z,89.25
2016-08-22T02:35:48.731Z,89.64
2016-08-22T02:36:48.732Z,88.87
2016-08-22T02:37:48.739Z,88.59
2016-08-22T02:38:48.718Z,88.78
2016-08-22T02:39:48.751Z,88.68
2016-08-22T02:40:48.727Z,88.49
2016-08-22T02:41:48.701Z,88.78
2016-08-22T02:42:48.720Z,88.87
2016-08-22T02:43:48.689Z,88.59
2016-08-22T02:44:48.687Z,88.4
2016-08-22T02:45:48.695Z,88.49
2016-08-22T02:46:48.696Z,88.97
2016-08-22T02:47:48.699Z,89.45
2016-08-22T02:48:48.689Z,89.16
2016-08-22T02:49:48.663Z,89.06
2016-08-22T02:50:49.364Z,89.35
2016-08-22T02:51:48.652Z,89.16
2016-08-22T02:52:48.667Z,89.16
2016-08-22T02:53:48.655Z,89.54
2016-08-22T02:54:48.651Z,89.35
2016-08-22T02:55:48.632Z,89.35
2016-08-22T02:56:48.641Z,89.64
2016-08-22T02:57:48.623Z,89.83
2016-08-22T02:58:48.654Z,89.35
2016-08-22T02:59:48.603Z,89.35
2016-08-22T03:00:48.636Z,89.16
2016-08-22T03:01:48.612Z,88.97
2016-08-22T03:02:48.596Z,89.06
2016-08-22T03:03:48.587Z,88.97
2016-08-22T03:04:48.575Z,89.35
2016-08-22T03:05:48.580Z,89.25
2016-08-22T03:06:48.598Z,89.35
2016-08-22T03:07:48.585Z,89.45
2016-08-22T03:08:49.271Z,89.35
2016-08-22T03:09:48.548Z,88.82
2016-08-22T03:10:48.541Z,89.2
2016-08-22T03:11:48.553Z,89.45
2016-08-22T03:12:48.541Z,89.25
2016-08-22T03:13:48.548Z,89.45
2016-08-22T03:14:48.572Z,89.06
2016-08-22T03:15:48.524Z,89.06
2016-08-22T03:16:48.523Z,89.45
2016-08-22T03:17:48.509Z,89.39
2016-08-22T03:18:48.505Z,89.16
2016-08-22T03:19:48.495Z,89.2
2016-08-22T03:20:48.498Z,89.59
2016-08-22T03:21:48.489Z,89.35
2016-08-22T03:22:48.511Z,88.92
2016-08-22T03:23:48.505Z,88.78
2016-08-22T03:24:48.485Z,89.39
2016-08-22T03:25:48.493Z,89.16
2016-08-22T03:26:48.458Z,89.3
2016-08-22T03:27:48.464Z,89.01
2016-08-22T03:28:48.455Z,89.3
2016-08-22T03:29:48.445Z,89.01
2016-08-22T03:30:48.443Z,89.2
2016-08-22T03:31:48.449Z,88.92
2016-08-22T03:32:49.250Z,89.59
2016-08-22T03:33:48.436Z,89.01
2016-08-22T03:34:48.448Z,89.49
2016-08-22T03:35:49.139Z,89.39
2016-08-22T03:36:48.429Z,89.49
2016-08-22T03:37:48.418Z,89.11
2016-08-22T03:38:48.413Z,89.3
2016-08-22T03:39:48.391Z,89.01
2016-08-22T03:40:48.385Z,89.2
2016-08-22T03:41:48.384Z,89.3
2016-08-22T03:42:48.381Z,89.2
2016-08-22T03:43:48.375Z,89.3
2016-08-22T03:44:48.404Z,89.59
2016-08-22T03:45:48.442Z,88.82
2016-08-22T03:46:48.385Z,88.73
2016-08-22T03:47:48.372Z,89.49
2016-08-22T03:48:48.376Z,89.11
2016-08-22T03:49:48.345Z,89.39
2016-08-22T03:50:48.344Z,89.11
2016-08-22T03:51:48.354Z,88.63
2016-08-22T03:52:48.340Z,88.73
2016-08-22T03:53:48.367Z,88.73
2016-08-22T03:54:48.308Z,88.73
2016-08-22T03:55:48.316Z,88.63
2016-08-22T03:56:48.324Z,89.11
2016-08-22T03:57:48.326Z,88.15
2016-08-22T03:58:48.319Z,88.44
2016-08-22T03:59:48.315Z,88.63
2016-08-22T04:00:48.303Z,89.2
2016-08-22T04:01:48.277Z,89.49
2016-08-22T04:02:48.280Z,89.39
2016-08-22T04:03:48.271Z,89.2
2016-08-22T04:04:48.303Z,89.39
2016-08-22T04:05:48.304Z,89.49
2016-08-22T04:06:48.281Z,89.2
2016-08-22T04:07:48.246Z,89.39
2016-08-22T04:08:48.267Z,89.11
2016-08-22T04:09:48.262Z,89.2
2016-08-22T04:10:48.248Z,89.39
2016-08-22T04:11:48.225Z,89.39
2016-08-22T04:12:48.213Z,88.54
2016-08-22T04:13:48.212Z,89.39
2016-08-22T04:14:48.206Z,89.2
2016-08-22T04:15:48.202Z,89.3
2016-08-22T04:16:48.405Z,89.11
2016-08-22T04:17:48.224Z,89.39
2016-08-22T04:18:48.197Z,89.49
2016-08-22T04:19:48.194Z,89.2
2016-08-22T04:20:48.178Z,88.63
2016-08-22T04:21:48.185Z,89.87
2016-08-22T04:22:48.170Z,89.68
2016-08-22T04:23:48.168Z,89.78
2016-08-22T04:24:48.160Z,89.49
2016-08-22T04:25:48.159Z,89.3
2016-08-22T04:26:48.156Z,89.2
2016-08-22T04:27:48.168Z,89.3
2016-08-22T04:28:48.157Z,89.39
2016-08-22T04:29:48.129Z,89.3
2016-08-22T04:30:48.130Z,89.59
2016-08-22T04:31:48.132Z,89.3
2016-08-22T04:32:48.121Z,89.11
2016-08-22T04:33:48.138Z,88.92
2016-08-22T04:34:48.107Z,89.01
2016-08-22T04:35:48.118Z,88.73
2016-08-22T04:36:48.129Z,88.82
2016-08-22T04:37:48.103Z,88.63
2016-08-22T04:38:48.086Z,88.92
2016-08-22T04:39:48.084Z,88.73
2016-08-22T04:40:48.074Z,89.2
2016-08-22T04:41:48.071Z,88.73
2016-08-22T04:42:48.079Z,88.73
2016-08-22T04:43:48.081Z,88.82
2016-08-22T04:44:48.074Z,88.73
2016-08-22T04:45:48.065Z,89.01
2016-08-22T04:46:48.058Z,88.73
2016-08-22T04:47:48.060Z,88.82
2016-08-22T04:48:48.061Z,89.39
2016-08-22T04:49:48.060Z,89.01
2016-08-22T04:50:48.046Z,89.2
2016-08-22T04:51:48.033Z,89.2
2016-08-22T04:52:48.035Z,88.82
2016-08-22T04:53:48.045Z,88.73
2016-08-22T04:54:48.028Z,88.58
2016-08-22T04:55:48.028Z,88.73
2016-08-22T04:56:48.026Z,88.54
2016-08-22T04:57:48.010Z,88.44
2016-08-22T04:58:47.997Z,89.01
2016-08-22T04:59:48.000Z,89.06
2016-08-22T05:00:47.993Z,88.96
2016-08-22T05:01:48.204Z,88.29
2016-08-22T05:02:47.991Z,88.48
2016-08-22T05:03:48.014Z,88.96
2016-08-22T05:04:47.989Z,88.25
2016-08-22T05:05:47.975Z,88.54
2016-08-22T05:06:47.966Z,88.73
2016-08-22T05:07:47.969Z,88.92
2016-08-22T05:08:47.958Z,88.2
2016-08-22T05:09:47.943Z,88.48
2016-08-22T05:10:47.954Z,88.2
2016-08-22T05:11:47.957Z,88.77
2016-08-22T05:12:47.944Z,88.77
2016-08-22T05:13:47.930Z,88.77
2016-08-22T05:14:47.944Z,88.58
2016-08-22T05:15:47.931Z,88.58
2016-08-22T05:16:47.927Z,88.48
2016-08-22T05:17:47.892Z,88.68
2016-08-22T05:18:47.898Z,88.68
2016-08-22T05:19:47.943Z,88.39
2016-08-22T05:20:47.885Z,88.39
2016-08-22T05:21:47.892Z,88.39
2016-08-22T05:22:47.880Z,88.2
2016-08-22T05:23:47.875Z,88.2
2016-08-22T05:24:47.885Z,88.58
2016-08-22T05:25:47.874Z,88.1
2016-08-22T05:26:47.846Z,88.29
2016-08-22T05:27:47.873Z,88.2
2016-08-22T05:28:47.858Z,88.01
2016-08-22T05:29:47.864Z,87.82
2016-08-22T05:30:47.830Z,88.01
2016-08-22T05:31:47.820Z,88.2
2016-08-22T05:32:47.821Z,88.39
2016-08-22T05:33:47.811Z,87.72
2016-08-22T05:34:48.536Z,88.1
2016-08-22T05:35:47.809Z,87.62
2016-08-22T05:36:47.809Z,88.58
2016-08-22T05:37:47.820Z,88.39
2016-08-22T05:38:47.805Z,88.39
2016-08-22T05:39:47.801Z,87.72
2016-08-22T05:40:47.798Z,87.82
2016-08-22T05:41:47.799Z,87.62
2016-08-22T05:42:47.769Z,88.2
2016-08-22T05:43:47.768Z,88.96
2016-08-22T05:44:47.765Z,88.29
2016-08-22T05:45:47.770Z,88.29
2016-08-22T05:46:47.769Z,88.39
2016-08-22T05:47:47.802Z,88.1
2016-08-22T05:48:47.777Z,88.2
2016-08-22T05:49:47.755Z,88.01
2016-08-22T05:50:47.757Z,88.58
2016-08-22T05:51:47.754Z,88.39
2016-08-22T05:52:47.718Z,88.58
2016-08-22T05:53:47.729Z,88.43
2016-08-22T05:54:47.727Z,88.39
2016-08-22T05:55:47.732Z,88.48
2016-08-22T05:56:47.717Z,88.29
2016-08-22T05:57:48.427Z,88.05
2016-08-22T05:58:47.697Z,87.86
2016-08-22T05:59:47.710Z,87.57
2016-08-22T06:00:47.720Z,87.48
2016-08-22T06:01:47.714Z,87.76
2016-08-22T06:02:47.712Z,87.38
2016-08-22T06:03:47.667Z,87
2016-08-22T06:04:47.672Z,86.43
2016-08-22T06:05:47.665Z,86.33
2016-08-22T06:06:47.670Z,86.14
2016-08-22T06:07:47.659Z,86.14
2016-08-22T06:08:47.661Z,85.85
2016-08-22T06:09:47.654Z,85.75
2016-08-22T06:10:47.650Z,85.47
2016-08-22T06:11:47.658Z,85.28
2016-08-22T06:12:47.659Z,85.66
2016-08-22T06:13:47.660Z,85.75
2016-08-22T06:14:47.642Z,85.28
2016-08-22T06:15:47.617Z,84.89
2016-08-22T06:16:47.627Z,84.7
2016-08-22T06:17:47.619Z,84.7
2016-08-22T06:18:47.614Z,84.52
2016-08-22T06:19:47.609Z,85.38
2016-08-22T06:20:47.618Z,85.66
2016-08-22T06:21:47.609Z,85.85
2016-08-22T06:22:47.621Z,85.75
2016-08-22T06:23:47.604Z,85.8
2016-08-22T06:24:47.572Z,85.51
2016-08-22T06:25:47.580Z,85.71
2016-08-22T06:26:47.587Z,86.47
2016-08-22T06:27:47.576Z,85.51
2016-08-22T06:28:47.563Z,85.8
2016-08-22T06:29:47.574Z,85.22
2016-08-22T06:30:47.571Z,84.75
2016-08-22T06:31:47.557Z,85.41
2016-08-22T06:32:47.545Z,84.46
2016-08-22T06:33:47.607Z,84.08
2016-08-22T06:34:47.547Z,84.75
2016-08-22T06:35:47.558Z,84.27
2016-08-22T06:36:48.267Z,84.75
2016-08-22T06:37:47.568Z,85.03
2016-08-22T06:38:47.530Z,84.94
2016-08-22T06:39:47.509Z,84.65
2016-08-22T06:40:47.511Z,85.03
2016-08-22T06:41:47.563Z,85.03
2016-08-22T06:42:47.519Z,84.84
2016-08-22T06:43:47.499Z,84.75
2016-08-22T06:44:47.504Z,84.84
2016-08-22T06:45:47.509Z,84.55
2016-08-22T06:46:47.487Z,84.36
2016-08-22T06:47:47.484Z,85.41
2016-08-22T06:48:47.486Z,85.13
2016-08-22T06:49:47.484Z,85.03
2016-08-22T06:50:47.474Z,84.65
2016-08-22T06:51:47.475Z,84.84
2016-08-22T06:52:47.473Z,84.94
2016-08-22T06:53:47.468Z,84.94
2016-08-22T06:54:47.462Z,84.55
2016-08-22T06:55:47.455Z,84.46
2016-08-22T06:56:47.465Z,84.84
2016-08-22T06:57:47.453Z,85.13
2016-08-22T06:58:47.654Z,84.84
2016-08-22T06:59:47.439Z,84.36
2016-08-22T07:00:47.445Z,84.27
2016-08-22T07:01:47.436Z,84.36
2016-08-22T07:02:47.426Z,84.08
2016-08-22T07:03:47.434Z,84.36
2016-08-22T07:04:47.417Z,83.64
2016-08-22T07:05:47.425Z,84.22
2016-08-22T07:06:47.430Z,84.5
2016-08-22T07:07:47.405Z,84.69
2016-08-22T07:08:47.402Z,84.12
2016-08-22T07:09:47.409Z,84.02
2016-08-22T07:10:47.399Z,84.12
2016-08-22T07:11:47.401Z,84.17
2016-08-22T07:12:47.397Z,84.08
2016-08-22T07:13:47.413Z,84.12
2016-08-22T07:14:47.391Z,83.93
2016-08-22T07:15:47.373Z,84.12
2016-08-22T07:16:47.389Z,83.83
2016-08-22T07:17:47.376Z,84.02
2016-08-22T07:18:47.366Z,82.87
2016-08-22T07:19:48.074Z,82.92
2016-08-22T07:20:47.366Z,81.57
2016-08-22T07:21:47.363Z,81.86
2016-08-22T07:22:47.354Z,81.57
2016-08-22T07:23:47.383Z,81.57
2016-08-22T07:24:47.359Z,80.43
2016-08-22T07:25:47.350Z,80.37
2016-08-22T07:26:47.348Z,79.99
2016-08-22T07:27:47.459Z,79.6
2016-08-22T07:28:47.327Z,79.13
2016-08-22T07:29:47.333Z,78.93
2016-08-22T07:30:47.332Z,79.13
2016-08-22T07:31:47.330Z,79.41
2016-08-22T07:32:47.345Z,78.69
2016-08-22T07:33:47.340Z,77.73
2016-08-22T07:34:47.314Z,77.73
2016-08-22T07:35:47.315Z,78.59
2016-08-22T07:36:47.304Z,79.07
2016-08-22T07:37:47.306Z,78.49
2016-08-22T07:38:47.317Z,77.53
2016-08-22T07:39:47.314Z,76.86
2016-08-22T07:40:47.307Z,76.67
2016-08-22T07:41:48.010Z,75.62
2016-08-22T07:42:47.301Z,77.15
2016-08-22T07:43:47.296Z,77.44
2016-08-22T07:44:47.294Z,78.49
2016-08-22T07:45:47.282Z,77.92
2016-08-22T07:46:47.289Z,76.96
2016-08-22T07:47:47.280Z,77.34
2016-08-22T07:48:47.273Z,77.53
2016-08-22T07:49:47.301Z,78.69
2016-08-22T07:50:47.287Z,78.3
2016-08-22T07:51:47.269Z,78.27
2016-08-22T07:52:47.294Z,77.31
2016-08-22T07:53:47.280Z,77.02
2016-08-22T07:54:47.284Z,78.64
2016-08-22T07:55:47.256Z,78.74
2016-08-22T07:56:47.252Z,78.36
2016-08-22T07:57:47.246Z,79.41
2016-08-22T07:58:47.249Z,79.51
2016-08-22T07:59:47.244Z,78.64
2016-08-22T08:00:47.248Z,80.47
2016-08-22T08:01:47.239Z,79.51
2016-08-22T08:02:47.235Z,78.45
2016-08-22T08:03:47.431Z,78.27
2016-08-22T08:04:47.231Z,77.31
2016-08-22T08:05:47.225Z,77.11
2016-08-22T08:06:47.225Z,77.59
2016-08-22T08:07:47.219Z,77.34
2016-08-22T08:08:47.223Z,77.34
2016-08-22T08:09:47.210Z,77.44
2016-08-22T08:10:47.213Z,77.06
2016-08-22T08:11:47.206Z,76.39
2016-08-22T08:12:47.211Z,76.48
2016-08-22T08:13:47.230Z,76.86
2016-08-22T08:14:47.213Z,76.42
2016-08-22T08:15:47.202Z,75.75
2016-08-22T08:16:47.199Z,75.33
2016-08-22T08:17:47.203Z,75.08
2016-08-22T08:18:47.203Z,75.04
2016-08-22T08:19:47.192Z,75.23
2016-08-22T08:20:47.195Z,75.71
2016-08-22T08:21:47.191Z,76.19
2016-08-22T08:22:47.188Z,75.81
2016-08-22T08:23:47.178Z,77.34
2016-08-22T08:24:47.238Z,77.63
2016-08-22T08:25:47.200Z,77.63
2016-08-22T08:26:47.174Z,76.73
2016-08-22T08:27:47.177Z,76.67
2016-08-22T08:28:47.167Z,75.62
2016-08-22T08:29:47.171Z,75.9
2016-08-22T08:30:47.162Z,76.77
2016-08-22T08:31:47.166Z,77.97
2016-08-22T08:32:47.266Z,77.15
2016-08-22T08:33:47.178Z,76.96
2016-08-22T08:34:47.175Z,76.64
2016-08-22T08:35:47.196Z,76.64
2016-08-22T08:36:47.179Z,77.11
2016-08-22T08:37:47.202Z,77.21
2016-08-22T08:38:47.161Z,77.97
2016-08-22T08:39:47.170Z,78.17
2016-08-22T08:40:47.172Z,78.84
2016-08-22T08:41:47.159Z,78.93
2016-08-22T08:42:47.154Z,79.18
2016-08-22T08:43:47.151Z,79.66
2016-08-22T08:44:47.169Z,78.51
2016-08-22T08:45:47.170Z,78.8
2016-08-22T08:46:47.219Z,79.75
2016-08-22T08:47:47.139Z,79.66
2016-08-22T08:48:47.137Z,79.47
2016-08-22T08:49:47.114Z,80.47
2016-08-22T08:50:47.114Z,82.09
2016-08-22T08:51:47.117Z,82.32
2016-08-22T08:52:47.111Z,79.97
2016-08-22T08:53:47.113Z,78.72
2016-08-22T08:54:47.121Z,77.29
2016-08-22T08:55:47.116Z,75.27
2016-08-22T08:56:47.128Z,74.89
2016-08-22T08:57:47.107Z,74.98
2016-08-22T08:58:47.112Z,75.46
2016-08-22T08:59:47.129Z,77.19
2016-08-22T09:00:47.100Z,76.81
2016-08-22T09:01:47.084Z,75.4
2016-08-22T09:02:47.101Z,74.54
2016-08-22T09:03:47.085Z,73.58
2016-08-22T09:04:47.092Z,75.08
2016-08-22T09:05:47.100Z,75.65
2016-08-22T09:06:47.089Z,75.08
2016-08-22T09:07:47.085Z,74.16
2016-08-22T09:08:47.073Z,73.68
2016-08-22T09:09:47.097Z,74.64
2016-08-22T09:10:47.064Z,74.44
2016-08-22T09:11:47.069Z,75.4
2016-08-22T09:12:47.075Z,75.98
2016-08-22T09:13:47.305Z,75.31
2016-08-22T09:14:47.077Z,75.6
2016-08-22T09:15:47.059Z,75.4
2016-08-22T09:16:47.071Z,74.93
2016-08-22T09:17:47.070Z,74.44
2016-08-22T09:18:47.066Z,74.44
2016-08-22T09:19:47.068Z,74.58
2016-08-22T09:20:47.054Z,75.73
2016-08-22T09:21:47.056Z,74.87
2016-08-22T09:22:47.050Z,73.43
2016-08-22T09:23:47.046Z,73.66
2016-08-22T09:24:47.045Z,72.66
2016-08-22T09:25:47.041Z,71.93
2016-08-22T09:26:47.029Z,69.53
2016-08-22T09:27:47.070Z,69.14
2016-08-22T09:28:47.034Z,70.01
2016-08-22T09:29:47.031Z,70.26
2016-08-22T09:30:47.028Z,70.17
2016-08-22T09:31:47.025Z,71.64
2016-08-22T09:32:47.026Z,70.68
2016-08-22T09:33:47.056Z,70.39
2016-08-22T09:34:47.043Z,69.62
2016-08-22T09:35:47.052Z,70.29
2016-08-22T09:36:47.057Z,69.59
2016-08-22T09:37:47.031Z,70.64
2016-08-22T09:38:47.069Z,71.51
2016-08-22T09:39:47.023Z,70.49
2016-08-22T09:40:47.079Z,70.07
2016-08-22T09:41:47.011Z,70.26
2016-08-22T09:42:47.012Z,70.17
2016-08-22T09:43:47.006Z,71.22
2016-08-22T09:44:47.052Z,69.11
2016-08-22T09:45:47.025Z,69.2
2016-08-22T09:46:47.004Z,69.11
2016-08-22T09:47:47.006Z,68.59
2016-08-22T09:48:47.067Z,71.76
2016-08-22T09:49:47.032Z,72.05
2016-08-22T09:50:47.040Z,71.19
2016-08-22T09:51:47.195Z,69.11
2016-08-22T09:52:47.061Z,68.53
2016-08-22T09:53:47.018Z,68.05
2016-08-22T09:54:47.005Z,71.89
2016-08-22T09:55:47.002Z,70.93
2016-08-22T09:56:46.991Z,71.8
2016-08-22T09:57:47.086Z,70.74
2016-08-22T09:58:47.018Z,70.26
2016-08-22T09:59:46.990Z,71.41
2016-08-22T10:00:47.000Z,70.55
2016-08-22T10:01:46.980Z,69.49
2016-08-22T10:02:46.982Z,68.91
2016-08-22T10:03:47.001Z,68.73
2016-08-22T10:04:46.978Z,66.42
2016-08-22T10:05:46.970Z,65.46
2016-08-22T10:06:46.969Z,68.53
2016-08-22T10:07:46.971Z,68.82
2016-08-22T10:08:47.024Z,69.87
2016-08-22T10:09:47.113Z,68.73
2016-08-22T10:10:46.992Z,68.73
2016-08-22T10:11:46.971Z,68.73
2016-08-22T10:12:46.981Z,67.29
2016-08-22T10:13:46.968Z,67.38
2016-08-22T10:14:46.961Z,67.57
2016-08-22T10:15:46.992Z,67.57
2016-08-22T10:16:46.986Z,66.9
2016-08-22T10:17:46.995Z,68.63
2016-08-22T10:18:46.959Z,68.34
2016-08-22T10:19:46.957Z,66.71
2016-08-22T10:20:46.954Z,66.8
2016-08-22T10:21:46.954Z,68.82
2016-08-22T10:22:46.951Z,69.49
2016-08-22T10:23:46.962Z,70.17
2016-08-22T10:24:46.961Z,70.8
2016-08-22T10:25:46.973Z,69.07
2016-08-22T10:26:46.952Z,69.11
2016-08-22T10:27:46.971Z,69.46
2016-08-22T10:28:46.995Z,69.46
2016-08-22T10:29:46.960Z,69.26
2016-08-22T10:30:46.959Z,69.65
2016-08-22T10:31:46.937Z,70.51
2016-08-22T10:32:46.940Z,70.8
2016-08-22T10:33:46.952Z,71.28
2016-08-22T10:34:46.961Z,70.51
2016-08-22T10:35:46.928Z,70.32
2016-08-22T10:36:46.975Z,71.09
2016-08-22T10:37:46.978Z,70.9
2016-08-22T10:38:46.960Z,70.86
2016-08-22T10:39:46.952Z,70.86
2016-08-22T10:40:46.930Z,70.57
2016-08-22T10:41:46.943Z,70.09
2016-08-22T10:42:46.919Z,69.84
2016-08-22T10:43:46.917Z,71.76
2016-08-22T10:44:46.922Z,73.97
2016-08-22T10:45:46.919Z,71.12
2016-08-22T10:46:47.009Z,74.01
2016-08-22T10:47:46.979Z,67.7
2016-08-22T10:48:46.936Z,68.08
2016-08-22T10:49:46.944Z,71.16
2016-08-22T10:50:46.945Z,71.77
2016-08-22T10:51:46.904Z,70.81
2016-08-22T10:52:46.904Z,68.06
2016-08-22T10:53:46.902Z,66.91
2016-08-22T10:54:46.914Z,66.42
2016-08-22T10:55:46.891Z,65.17
2016-08-22T10:56:46.937Z,62.48
2016-08-22T10:57:46.930Z,63.35
2016-08-22T10:58:46.922Z,63.45
2016-08-22T10:59:46.900Z,61.33
2016-08-22T11:00:46.915Z,62.96
2016-08-22T11:01:46.917Z,63.35
2016-08-22T11:02:46.911Z,65.75
2016-08-22T11:03:46.909Z,65.91
2016-08-22T11:04:46.922Z,64.98
2016-08-22T11:05:46.880Z,67.96
2016-08-22T11:06:46.878Z,63.35
2016-08-22T11:07:46.885Z,61.33
2016-08-22T11:08:46.944Z,64.4
2016-08-22T11:09:46.903Z,62.38
2016-08-22T11:10:46.900Z,61.91
2016-08-22T11:11:47.610Z,61.61
2016-08-22T11:12:46.910Z,59.31
2016-08-22T11:13:46.902Z,59.79
2016-08-22T11:14:46.931Z,60.63
2016-08-22T11:15:46.897Z,61.2
2016-08-22T11:16:46.869Z,66.97
2016-08-22T11:17:46.901Z,68.73
2016-08-22T11:18:46.908Z,67.19
2016-08-22T11:19:46.886Z,62.51
2016-08-22T11:20:46.860Z,60.69
2016-08-22T11:21:46.879Z,60.59
2016-08-22T11:22:46.896Z,62.03
2016-08-22T11:23:46.862Z,60.62
2016-08-22T11:24:46.884Z,59.66
2016-08-22T11:25:46.884Z,59.94
2016-08-22T11:26:46.887Z,59.08
2016-08-22T11:27:46.900Z,58.57
2016-08-22T11:28:46.874Z,58.57
2016-08-22T11:29:46.887Z,57.99
2016-08-22T11:30:46.891Z,62.61
2016-08-22T11:31:46.876Z,62.13
2016-08-22T11:32:46.852Z,60.11
2016-08-22T11:33:46.875Z,59.6
2016-08-22T11:34:46.873Z,60.56
2016-08-22T11:35:46.871Z,59.89
2016-08-22T11:36:46.858Z,60.85
2016-08-22T11:37:46.863Z,59.31
2016-08-22T11:38:46.853Z,59.79
2016-08-22T11:39:46.892Z,59.22
2016-08-22T11:40:46.875Z,60.66
2016-08-22T11:41:46.844Z,58.15
2016-08-22T11:42:46.902Z,58.83
2016-08-22T11:43:46.853Z,58.64
2016-08-22T11:44:46.861Z,58.45
2016-08-22T11:45:46.850Z,58.95
2016-08-22T11:46:46.841Z,61.16
2016-08-22T11:47:46.837Z,62.99
2016-08-22T11:48:46.887Z,60.88
2016-08-22T11:49:46.854Z,59.08
2016-08-22T11:50:46.863Z,58.95
2016-08-22T11:51:46.860Z,62.03
2016-08-22T11:52:46.902Z,61.65
2016-08-22T11:53:46.870Z,60.78
2016-08-22T11:54:46.871Z,60.21
2016-08-22T11:55:46.835Z,59.82
2016-08-22T11:56:46.839Z,59.02
2016-08-22T11:57:46.841Z,59.5
2016-08-22T11:58:46.848Z,60.82
2016-08-22T11:59:46.871Z,61.11
2016-08-22T12:00:46.834Z,62.07
2016-08-22T12:01:46.833Z,62.32
2016-08-22T12:02:46.875Z,63.57
2016-08-22T12:03:46.865Z,63.28
2016-08-22T12:04:46.871Z,63.19
2016-08-22T12:05:46.862Z,64.05
2016-08-22T12:06:46.836Z,64.79
2016-08-22T12:07:46.852Z,65.17
2016-08-22T12:08:46.851Z,64.79
2016-08-22T12:09:46.846Z,64.53
2016-08-22T12:10:46.820Z,64.4
2016-08-22T12:11:46.849Z,64.15
2016-08-22T12:12:46.850Z,64.72
2016-08-22T12:13:46.849Z,65.01
2016-08-22T12:14:46.820Z,63.76
2016-08-22T12:15:46.825Z,60.31
2016-08-22T12:16:46.815Z,59.44
2016-08-22T12:17:46.847Z,60.4
2016-08-22T12:18:46.874Z,62.99
2016-08-22T12:19:46.825Z,62.42
2016-08-22T12:20:46.871Z,61.17
2016-08-22T12:21:46.815Z,61.55
2016-08-22T12:22:46.803Z,61.55
2016-08-22T12:23:46.845Z,61.84
2016-08-22T12:24:46.897Z,61.17
2016-08-22T12:25:46.853Z,61.65
2016-08-22T12:26:46.860Z,61.55
2016-08-22T12:27:46.816Z,63.38
2016-08-22T12:28:46.834Z,63.48
2016-08-22T12:29:46.815Z,61.75
2016-08-22T12:30:46.856Z,61.2
2016-08-22T12:31:46.845Z,61.97
2016-08-22T12:32:46.800Z,61.11
2016-08-22T12:33:46.811Z,61.2
2016-08-22T12:34:46.806Z,56.88
2016-08-22T12:35:46.806Z,56.4
2016-08-22T12:36:46.798Z,55.91
2016-08-22T12:37:46.865Z,55.34
2016-08-22T12:38:46.831Z,56.21
2016-08-22T12:39:46.834Z,55.91
2016-08-22T12:40:46.819Z,56.98
2016-08-22T12:41:46.826Z,58.51
2016-08-22T12:42:46.867Z,59.38
2016-08-22T12:43:46.820Z,59.57
2016-08-22T12:44:46.802Z,58.1
2016-08-22T12:45:46.817Z,56.08
2016-08-22T12:46:46.797Z,56.46
2016-08-22T12:47:46.774Z,58.1
2016-08-22T12:48:46.767Z,59.92
2016-08-22T12:49:46.789Z,58.26
2016-08-22T12:50:46.836Z,59.92
2016-08-22T12:51:46.790Z,60.78
2016-08-22T12:52:46.802Z,60.31
2016-08-22T12:53:46.772Z,59.44
2016-08-22T12:54:46.769Z,60.21
2016-08-22T12:55:46.786Z,59.64